Cherry Brook, Connecticut
Current Conditions -  °F | °C
As of 6:51 PM on Sunday 23 Nov 2014 (Local Time) from KBDL Reporting Station
Broken Clouds Broken Clouds  
Wind Chill: 45°   Ceiling: 25000
Heat Index: 48°   Visibility: 10mi
Dew Point: 28°   Wind: 7mph
Humidity: 46%   Direction: 170°S
Pressure: 30.1"   Gusts: NA
Location:  41.8586°N, 72.9136°W
Report Text: KBDL 232351Z 17006KT 10SM FEW070 SCT130 BKN250 09/M02 A3010 RMK AO2 SLP195 T00891022 10161 20089 50001
Loading
Personal Weather Stations






























Interactive Weather Map New forecast layout! Learn more

10-Day Weather Forecast

Advertisements
Track Severe Weather on mobile